Time;durP1;ratioP1;P1;durP2;ratioP2;P2;SDS_P1;SDS_P2;PMS_P1;PMS_P2;Temp;Humidity;BMP_temperature;BMP_pressure;BME280_temperature;BME280_humidity;BME280_pressure;Samples;Min_cycle;Max_cycle;Signal;HPM_P1;HPM_P2
2023/12/21 00:00:37;;;;;;;3.22;1.20;;;18.60;79.60;;;;;;5032492;28;20053;-29
2023/12/21 00:03:04;;;;;;;1.95;1.10;;;;;;;;;;5032384;28;20057;-29
2023/12/21 00:05:31;;;;;;;2.90;1.30;;;;;;;;;;5032001;28;20088;-28
2023/12/21 00:08:00;;;;;;;1.50;1.00;;;;;;;;;;5032316;28;20046;-27
2023/12/21 00:10:27;;;;;;;2.38;1.20;;;;;;;;;;5032263;28;20049;-27
2023/12/21 00:12:54;;;;;;;2.20;1.08;;;;;;;;;;5031679;28;20107;-25
2023/12/21 00:15:21;;;;;;;1.80;0.93;;;19.20;79.30;;;;;;5032130;28;20533;-25
2023/12/21 00:17:48;;;;;;;1.55;0.95;;;;;;;;;;5039509;28;20459;-25
2023/12/21 00:20:16;;;;;;;1.98;1.10;;;;;;;;;;5072099;28;20406;-25
2023/12/21 00:22:43;;;;;;;1.90;1.02;;;18.40;54.80;;;;;;5054339;28;20051;-25
2023/12/21 00:25:11;;;;;;;2.25;1.10;;;;;;;;;;5031686;28;20057;-25
2023/12/21 00:27:38;;;;;;;3.70;1.15;;;;;;;;;;5032042;28;20049;-25
2023/12/21 00:30:06;;;;;;;2.30;1.35;;;;;;;;;;5031883;28;20103;-26
2023/12/21 00:32:33;;;;;;;1.45;0.88;;;18.50;79.50;;;;;;5031794;28;20053;-26
2023/12/21 00:35:00;;;;;;;1.77;1.00;;;;;;;;;;5031627;28;20053;-26
2023/12/21 00:37:28;;;;;;;3.85;1.20;;;;;;;;;;5032883;28;20100;-25
2023/12/21 00:39:56;;;;;;;2.80;1.20;;;;;;;;;;5031616;28;20550;-24
2023/12/21 00:42:25;;;;;;;3.35;1.30;;;;;;;;;;5049745;28;20053;-27
2023/12/21 00:44:52;;;;;;;2.58;1.17;;;;;;;;;;5051697;28;20056;-31
2023/12/21 00:47:19;;;;;;;2.25;1.05;;;;;;;;;;5051490;28;20048;-27
2023/12/21 00:49:46;;;;;;;2.88;1.20;;;18.40;75.30;;;;;;5051637;28;20049;-25
2023/12/21 00:52:14;;;;;;;2.85;1.23;;;;;;;;;;5034728;28;20111;-25
2023/12/21 00:54:41;;;;;;;2.90;1.30;;;17.90;78.80;;;;;;5031547;28;20499;-26
2023/12/21 00:57:08;;;;;;;3.10;1.15;;;;;;;;;;5031396;28;20103;-26
2023/12/21 00:59:36;;;;;;;2.95;1.20;;;;;;;;;;5031671;28;20057;-26
2023/12/21 01:02:03;;;;;;;2.20;1.25;;;;;;;;;;5031506;28;20095;-25
2023/12/21 01:04:30;;;;;;;2.53;1.13;;;18.30;79.50;;;;;;5031195;28;20049;-25
2023/12/21 01:06:57;;;;;;;3.92;1.30;;;;;;;;;;5031221;28;20453;-25
2023/12/21 01:09:25;;;;;;;3.00;1.25;;;;;;;;;;5031778;28;20448;-26
2023/12/21 01:11:52;;;;;;;4.03;1.55;;;;;;;;;;5031352;28;20061;-25
2023/12/21 01:14:19;;;;;;;2.45;1.30;;;18.70;80.00;;;;;;5043120;28;20044;-26
2023/12/21 01:16:47;;;;;;;3.33;1.50;;;18.40;51.00;;;;;;5071238;28;20056;-25
2023/12/21 01:19:14;;;;;;;3.60;1.40;;;;;;;;;;5070394;28;20046;-26
2023/12/21 01:21:41;;;;;;;2.55;1.20;;;;;;;;;;5035843;28;20042;-25
2023/12/21 01:24:09;;;;;;;2.13;1.00;;;;;;;;;;5035557;28;20103;-27
2023/12/21 01:26:35;;;;;;;2.30;1.20;;;19.80;79.70;;;;;;5034844;28;20483;-24
2023/12/21 01:29:03;;;;;;;3.03;1.15;;;;;;;;;;5035301;28;20095;-28
2023/12/21 01:31:29;;;;;;;1.60;1.08;;;18.20;65.30;;;;;;5034903;28;20060;-24
2023/12/21 01:33:59;;;;;;;2.58;1.20;;;;;;;;;;5034979;28;20053;-25
2023/12/21 01:36:26;;;;;;;2.72;1.05;;;;;;;;;;5044045;28;20490;-25
2023/12/21 01:38:53;;;;;;;2.97;1.50;;;18.20;65.60;;;;;;5074876;28;20436;-25
2023/12/21 01:41:20;;;;;;;3.33;1.40;;;18.90;56.90;;;;;;5065159;28;20552;-26
2023/12/21 01:43:47;;;;;;;2.72;1.40;;;;;;;;;;5054547;28;20045;-25
2023/12/21 01:46:14;;;;;;;3.58;1.48;;;;;;;;;;5054749;28;20490;-29
2023/12/21 01:48:42;;;;;;;3.60;1.38;;;;;;;;;;5044179;28;20473;-27
2023/12/21 01:51:11;;;;;;;2.70;1.30;;;;;;;;;;5048820;28;20048;-30
2023/12/21 01:53:38;;;;;;;3.10;1.20;;;18.10;78.90;;;;;;5054534;28;20056;-31
2023/12/21 01:56:05;;;;;;;2.53;1.27;;;;;;;;;;5054696;28;20045;-30
2023/12/21 01:58:32;;;;;;;2.75;1.27;;;19.10;80.00;;;;;;5054835;28;20099;-31
2023/12/21 02:00:59;;;;;;;3.67;1.10;;;;;;;;;;5054344;28;20049;-31
2023/12/21 02:03:26;;;;;;;3.97;1.20;;;18.40;79.20;;;;;;5053826;28;20494;-30
2023/12/21 02:05:53;;;;;;;3.08;1.35;;;;;;;;;;5054276;28;20099;-32
2023/12/21 02:08:22;;;;;;;2.13;1.10;;;18.40;51.30;;;;;;5054642;28;20417;-29
2023/12/21 02:10:49;;;;;;;1.95;1.00;;;18.20;79.60;;;;;;5062558;28;20086;-31
2023/12/21 02:13:16;;;;;;;2.80;1.17;;;18.40;51.50;;;;;;5074041;28;20133;-26
2023/12/21 02:15:43;;;;;;;2.22;1.02;;;;;;;;;;5074143;28;20555;-24
2023/12/21 02:18:11;;;;;;;3.35;1.10;;;;;;;;;;5074424;28;20399;-25
2023/12/21 02:20:39;;;;;;;2.92;1.23;;;;;;;;;;5042437;28;20054;-29
2023/12/21 02:23:06;;;;;;;1.67;1.10;;;;;;;;;;5033938;28;20060;-24
2023/12/21 02:25:35;;;;;;;2.53;1.20;;;18.50;51.70;;;;;;5034183;28;20495;-26
2023/12/21 02:28:01;;;;;;;2.50;1.23;;;18.20;79.40;;;;;;5033864;28;20054;-25
2023/12/21 02:30:29;;;;;;;2.83;1.23;;;;;;;;;;5032679;28;20491;-27
2023/12/21 02:32:56;;;;;;;2.20;1.20;;;;;;;;;;5034105;28;20060;-24
2023/12/21 02:35:23;;;;;;;2.70;1.23;;;19.10;62.20;;;;;;5033866;28;20060;-28
2023/12/21 02:37:49;;;;;;;1.85;1.08;;;18.50;79.50;;;;;;5063597;28;20052;-30
2023/12/21 02:40:17;;;;;;;2.53;1.25;;;;;;;;;;5034593;28;20099;-30
2023/12/21 02:42:45;;;;;;;2.50;1.10;;;18.50;51.40;;;;;;5053312;28;20056;-28
2023/12/21 02:45:12;;;;;;;2.88;1.90;;;;;;;;;;5053641;28;20498;-28
2023/12/21 02:47:39;;;;;;;2.38;1.17;;;;;;;;;;5053431;28;20557;-28
2023/12/21 02:50:07;;;;;;;2.35;1.20;;;;;;;;;;5050085;28;20510;-28
2023/12/21 02:52:34;;;;;;;3.22;1.30;;;;;;;;;;5052957;28;20095;-28
2023/12/21 02:55:01;;;;;;;2.58;1.20;;;;;;;;;;5053676;28;20118;-27
2023/12/21 02:57:28;;;;;;;2.80;1.10;;;19.20;79.40;;;;;;5053486;28;20049;-28
2023/12/21 02:59:56;;;;;;;2.90;1.30;;;18.70;51.50;;;;;;5053818;28;20048;-27
2023/12/21 03:02:24;;;;;;;2.65;1.08;;;;;;;;;;5053281;28;20045;-27
2023/12/21 03:04:50;;;;;;;2.83;1.20;;;20.10;80.00;;;;;;5052846;28;20099;-29
2023/12/21 03:07:18;;;;;;;2.25;1.10;;;;;;;;;;5049149;28;20041;-28
2023/12/21 03:09:45;;;;;;;1.83;1.10;;;;;;;;;;5049352;28;20102;-29
2023/12/21 03:12:12;;;;;;;3.08;1.30;;;;;;;;;;5052935;28;20064;-26
2023/12/21 03:14:39;;;;;;;2.50;1.20;;;;;;;;;;5052756;28;20521;-28
2023/12/21 03:17:08;;;;;;;2.65;1.20;;;;;;;;;;5053189;28;20181;-29
2023/12/21 03:19:35;;;;;;;1.92;1.08;;;;;;;;;;5053259;28;20045;-29
2023/12/21 03:22:02;;;;;;;2.58;1.20;;;;;;;;;;5051952;28;20049;-25
2023/12/21 03:24:29;;;;;;;2.50;1.17;;;18.70;78.50;;;;;;5053039;28;20106;-26
2023/12/21 03:26:56;;;;;;;3.67;1.20;;;;;;;;;;5052940;28;20041;-26
2023/12/21 03:29:23;;;;;;;1.73;0.90;;;;;;;;;;5053124;28;20052;-25
2023/12/21 03:31:52;;;;;;;2.15;1.02;;;;;;;;;;5052621;28;20099;-26
2023/12/21 03:34:20;;;;;;;2.00;0.93;;;18.90;51.10;;;;;;5052950;28;20506;-26
2023/12/21 03:36:47;;;;;;;2.13;1.08;;;18.60;52.20;;;;;;5051466;28;20091;-26
2023/12/21 03:39:14;;;;;;;2.65;1.20;;;;;;;;;;5032769;28;20057;-25
2023/12/21 03:41:41;;;;;;;3.63;1.27;;;20.20;68.40;;;;;;5044571;28;20098;-25
2023/12/21 03:44:08;;;;;;;4.47;1.25;;;;;;;;;;5052463;28;20053;-25
2023/12/21 03:46:36;;;;;;;1.42;1.02;;;;;;;;;;5052385;28;20049;-26
2023/12/21 03:49:03;;;;;;;1.77;1.00;;;;;;;;;;5052256;28;20057;-26
2023/12/21 03:51:32;;;;;;;3.33;1.20;;;;;;;;;;5052358;28;20045;-29
2023/12/21 03:53:59;;;;;;;2.85;1.10;;;;;;;;;;5047166;28;20103;-26
2023/12/21 03:56:26;;;;;;;1.73;1.00;;;19.60;79.10;;;;;;5032536;28;20049;-30
2023/12/21 03:58:53;;;;;;;2.30;1.10;;;;;;;;;;5032565;28;20104;-24
2023/12/21 04:01:24;;;;;;;2.47;1.20;;;;;;;;;;5032072;28;20046;-25
2023/12/21 04:03:51;;;;;;;1.77;0.88;;;;;;;;;;5057046;28;20079;-30
2023/12/21 04:06:18;;;;;;;1.52;0.80;;;18.10;79.00;;;;;;5072230;28;20516;-32
2023/12/21 04:08:46;;;;;;;1.40;1.00;;;19.10;51.00;;;;;;5054143;28;20437;-27
2023/12/21 04:11:14;;;;;;;2.75;1.20;;;19.10;50.90;;;;;;5055604;28;20461;-27
2023/12/21 04:13:41;;;;;;;2.60;1.00;;;19.10;78.50;;;;;;5032094;28;20060;-25
2023/12/21 04:16:08;;;;;;;3.28;1.08;;;18.40;50.60;;;;;;5032083;28;20465;-26
2023/12/21 04:18:35;;;;;;;2.33;1.10;;;19.20;78.40;;;;;;5031970;28;20046;-24
2023/12/21 04:21:02;;;;;;;2.40;0.98;;;;;;;;;;5031888;28;20107;-26
2023/12/21 04:23:29;;;;;;;2.38;1.17;;;;;;;;;;5031738;28;20045;-24
2023/12/21 04:25:57;;;;;;;3.25;1.00;;;;;;;;;;5032265;28;20053;-26
2023/12/21 04:28:25;;;;;;;2.00;1.00;;;;;;;;;;5032789;28;20442;-25
2023/12/21 04:30:52;;;;;;;1.98;1.08;;;;;;;;;;5034062;28;20745;-25
2023/12/21 04:33:19;;;;;;;2.15;1.10;;;19.10;78.80;;;;;;5031861;28;20469;-24
2023/12/21 04:35:46;;;;;;;2.00;1.10;;;;;;;;;;5031924;28;20057;-24
2023/12/21 04:38:13;;;;;;;1.63;1.00;;;20.80;79.20;;;;;;5070389;28;20055;-24
2023/12/21 04:40:40;;;;;;;2.30;1.10;;;;;;;;;;5067851;28;20387;-25
2023/12/21 04:43:08;;;;;;;2.45;0.90;;;19.20;50.70;;;;;;5051474;28;20115;-26
2023/12/21 04:45:36;;;;;;;3.60;1.05;;;;;;;;;;5050696;28;20414;-26
2023/12/21 04:48:04;;;;;;;2.33;1.00;;;;;;;;;;5051731;28;20532;-26
2023/12/21 04:50:31;;;;;;;2.25;0.88;;;;;;;;;;5051747;28;20049;-29
2023/12/21 04:52:58;;;;;;;1.80;1.00;;;19.20;78.40;;;;;;5050423;28;20057;-32
2023/12/21 04:55:25;;;;;;;0.73;0.70;;;;;;;;;;5051389;28;20055;-27
2023/12/21 04:57:52;;;;;;;1.50;0.95;;;19.10;60.70;;;;;;5051678;28;20080;-32
2023/12/21 05:00:20;;;;;;;1.30;0.70;;;;;;;;;;5065809;28;20063;-27
2023/12/21 05:02:48;;;;;;;1.20;0.77;;;;;;;;;;5050957;28;20107;-27
2023/12/21 05:05:16;;;;;;;1.35;0.90;;;;;;;;;;5051700;28;20076;-29
2023/12/21 05:07:43;;;;;;;1.23;0.80;;;;;;;;;;5051510;28;20083;-28
2023/12/21 05:10:10;;;;;;;1.65;0.85;;;19.20;50.90;;;;;;5051039;28;20053;-29
2023/12/21 05:12:37;;;;;;;1.80;0.90;;;;;;;;;;5051082;28;20111;-29
2023/12/21 05:15:05;;;;;;;1.05;0.70;;;19.30;60.60;;;;;;5051485;28;20056;-31
2023/12/21 05:17:33;;;;;;;1.23;0.70;;;;;;;;;;5047992;28;20057;-29
2023/12/21 05:20:00;;;;;;;1.10;0.70;;;20.30;65.00;;;;;;5035043;28;20060;-25
2023/12/21 05:22:27;;;;;;;1.10;0.88;;;;;;;;;;5031486;28;20116;-26
2023/12/21 05:24:54;;;;;;;1.27;0.80;;;19.10;74.70;;;;;;5031359;28;20053;-25
2023/12/21 05:27:21;;;;;;;0.73;0.60;;;;;;;;;;5031268;28;20430;-26
2023/12/21 05:29:48;;;;;;;1.60;0.70;;;20.00;79.00;;;;;;5031605;28;20057;-26
2023/12/21 05:32:15;;;;;;;1.80;0.80;;;;;;;;;;5030863;28;20530;-25
2023/12/21 05:34:44;;;;;;;1.88;0.80;;;;;;;;;;5031490;28;20556;-26
2023/12/21 05:37:11;;;;;;;1.38;0.70;;;18.50;78.10;;;;;;5052864;28;20052;-27
2023/12/21 05:39:39;;;;;;;1.27;0.75;;;;;;;;;;5070913;28;20110;-33
2023/12/21 05:42:06;;;;;;;1.42;0.90;;;;;;;;;;5055385;28;20049;-31
2023/12/21 05:44:33;;;;;;;1.85;0.70;;;;;;;;;;5050898;28;20513;-27
2023/12/21 05:47:00;;;;;;;1.65;1.00;;;;;;;;;;5050724;28;20510;-26
2023/12/21 05:49:27;;;;;;;1.33;0.80;;;19.80;78.40;;;;;;5051099;28;20456;-29
2023/12/21 05:51:55;;;;;;;1.10;0.65;;;19.20;50.90;;;;;;5034829;28;20573;-24
2023/12/21 05:54:22;;;;;;;1.60;0.82;;;;;;;;;;5030691;28;20099;-30
2023/12/21 05:56:50;;;;;;;1.27;0.80;;;;;;;;;;5063949;28;20064;-25
2023/12/21 05:59:17;;;;;;;1.02;0.73;;;;;;;;;;5071027;28;20049;-27
2023/12/21 06:01:45;;;;;;;2.60;0.90;;;;;;;;;;5070713;28;20056;-25
2023/12/21 06:04:12;;;;;;;1.15;0.80;;;;;;;;;;5071923;28;20075;-33
2023/12/21 06:06:39;;;;;;;1.90;0.82;;;19.20;59.00;;;;;;5050723;28;20469;-33
2023/12/21 06:09:08;;;;;;;1.95;0.85;;;19.20;78.60;;;;;;5047744;28;20501;-30
2023/12/21 06:11:35;;;;;;;1.50;0.90;;;;;;;;;;5054084;28;20064;-27
2023/12/21 06:14:02;;;;;;;2.05;0.90;;;;;;;;;;5054132;28;20094;-25
2023/12/21 06:16:29;;;;;;;1.55;0.88;;;;;;;;;;5054403;28;20052;-29
2023/12/21 06:18:56;;;;;;;1.58;0.75;;;19.10;78.80;;;;;;5054129;28;20045;-25
2023/12/21 06:21:24;;;;;;;1.65;0.80;;;;;;;;;;5054044;28;20048;-27
2023/12/21 06:23:51;;;;;;;1.45;0.98;;;;;;;;;;5054103;28;20045;-25
2023/12/21 06:26:20;;;;;;;1.02;0.63;;;;;;;;;;5052640;28;20114;-29
2023/12/21 06:28:47;;;;;;;1.15;0.75;;;19.50;56.30;;;;;;5053607;28;20553;-29
2023/12/21 06:31:16;;;;;;;2.15;0.70;;;;;;;;;;5054173;28;20544;-27
2023/12/21 06:33:44;;;;;;;1.15;0.70;;;;;;;;;;5053792;28;20045;-30
2023/12/21 06:36:11;;;;;;;1.90;1.02;;;;;;;;;;5055892;28;20052;-28
2023/12/21 06:38:38;;;;;;;1.50;0.90;;;;;;;;;;5073839;28;20083;-28
2023/12/21 06:41:05;;;;;;;1.63;0.88;;;;;;;;;;5065494;28;20045;-29
2023/12/21 06:43:34;;;;;;;1.27;0.70;;;19.40;50.80;;;;;;5034314;28;20092;-26
2023/12/21 06:46:01;;;;;;;1.15;0.70;;;19.20;78.20;;;;;;5039271;28;20058;-25
2023/12/21 06:48:29;;;;;;;1.38;0.80;;;;;;;;;;5031819;28;20049;-26
2023/12/21 06:50:56;;;;;;;1.60;0.77;;;;;;;;;;5038391;28;20049;-25
2023/12/21 06:53:23;;;;;;;1.15;0.70;;;;;;;;;;5071593;28;20048;-26
2023/12/21 06:55:51;;;;;;;1.10;0.73;;;;;;;;;;5072749;28;20098;-26
2023/12/21 06:58:18;;;;;;;1.02;0.70;;;;;;;;;;5070238;28;20048;-26
2023/12/21 07:00:47;;;;;;;2.65;1.30;;;;;;;;;;5032749;28;20062;-26
2023/12/21 07:03:14;;;;;;;2.35;0.80;;;19.40;78.80;;;;;;5031599;28;20875;-26
2023/12/21 07:05:41;;;;;;;1.17;0.77;;;;;;;;;;5032542;28;20494;-27
2023/12/21 07:08:08;;;;;;;3.20;0.90;;;;;;;;;;5032536;28;20437;-30
2023/12/21 07:10:35;;;;;;;1.15;0.75;;;19.30;59.00;;;;;;5032070;28;20064;-27
2023/12/21 07:13:02;;;;;;;1.70;0.80;;;20.20;71.50;;;;;;5032364;28;20045;-31
2023/12/21 07:15:30;;;;;;;1.52;1.02;;;;;;;;;;5032602;28;20509;-27
2023/12/21 07:17:58;;;;;;;1.55;0.80;;;19.50;50.60;;;;;;5032472;28;20050;-28
2023/12/21 07:20:26;;;;;;;1.75;0.80;;;;;;;;;;5032136;28;20069;-27
2023/12/21 07:22:53;;;;;;;0.88;0.65;;;;;;;;;;5032220;28;20422;-30
2023/12/21 07:25:20;;;;;;;1.52;0.90;;;19.50;77.90;;;;;;5032475;28;20119;-24
2023/12/21 07:27:47;;;;;;;2.17;1.15;;;;;;;;;;5032436;28;20049;-32
2023/12/21 07:30:14;;;;;;;1.77;0.80;;;;;;;;;;5044062;28;20122;-27
2023/12/21 07:32:41;;;;;;;2.17;0.88;;;;;;;;;;5046770;28;20095;-28
2023/12/21 07:35:11;;;;;;;1.77;0.80;;;;;;;;;;5051942;28;20049;-30
2023/12/21 07:37:38;;;;;;;2.35;0.90;;;;;;;;;;5058021;28;20049;-28
2023/12/21 07:40:05;;;;;;;2.25;0.90;;;;;;;;;;5052105;28;20533;-27
2023/12/21 07:42:33;;;;;;;2.42;0.90;;;;;;;;;;5032450;28;20513;-27
2023/12/21 07:45:00;;;;;;;2.28;1.00;;;;;;;;;;5032033;28;20049;-29
2023/12/21 07:47:27;;;;;;;3.42;0.95;;;;;;;;;;5033009;28;20099;-28
2023/12/21 07:49:55;;;;;;;2.35;0.80;;;;;;;;;;5051384;28;20613;-27
2023/12/21 07:52:23;;;;;;;1.48;0.80;;;19.50;50.60;;;;;;5050816;28;20080;-27
2023/12/21 07:54:50;;;;;;;1.90;0.90;;;;;;;;;;5051711;28;20048;-25
2023/12/21 07:57:18;;;;;;;1.73;0.85;;;;;;;;;;5051741;28;20501;-28
2023/12/21 07:59:45;;;;;;;0.65;0.63;;;;;;;;;;5042336;28;20041;-29
2023/12/21 08:02:12;;;;;;;0.75;0.47;;;;;;;;;;5032413;28;20103;-31
2023/12/21 08:04:39;;;;;;;1.05;0.52;;;20.50;78.70;;;;;;5031570;28;20061;-29
2023/12/21 08:07:06;;;;;;;1.83;0.70;;;19.70;59.20;;;;;;5032813;28;20095;-29
2023/12/21 08:09:34;;;;;;;3.40;0.80;;;;;;;;;;5042479;28;20041;-30
2023/12/21 08:12:01;;;;;;;0.63;0.60;;;19.80;77.30;;;;;;5041615;28;20056;-31
2023/12/21 08:14:31;;;;;;;0.70;0.57;;;;;;;;;;5051193;28;20491;-29
2023/12/21 08:16:59;;;;;;;0.75;0.63;;;;;;;;;;5033629;28;20060;-28
2023/12/21 08:19:26;;;;;;;0.70;0.60;;;;;;;;;;5034612;28;20076;-30
2023/12/21 08:21:53;;;;;;;0.80;0.60;;;;;;;;;;5047419;28;20383;-26
2023/12/21 08:24:21;;;;;;;1.00;0.55;;;;;;;;;;5050849;28;20461;-24
2023/12/21 08:26:49;;;;;;;0.90;0.77;;;19.80;49.80;;;;;;5046482;28;20041;-30
2023/12/21 08:29:16;;;;;;;0.70;0.47;;;;;;;;;;5030678;28;20041;-31
2023/12/21 08:31:43;;;;;;;1.20;0.70;;;;;;;;;;5037850;28;20053;-30
2023/12/21 08:34:11;;;;;;;0.75;0.68;;;20.60;76.80;;;;;;5034975;28;20525;-30
2023/12/21 08:36:38;;;;;;;1.17;0.68;;;;;;;;;;5033411;28;20052;-26
2023/12/21 08:39:05;;;;;;;0.50;0.50;;;;;;;;;;5034040;28;20107;-33
2023/12/21 08:41:33;;;;;;;0.77;0.60;;;;;;;;;;5042828;28;20048;-26
2023/12/21 08:44:02;;;;;;;0.85;0.68;;;;;;;;;;5044291;28;20052;-26
2023/12/21 08:46:29;;;;;;;1.08;0.50;;;;;;;;;;5037588;28;20498;-28
2023/12/21 08:48:56;;;;;;;1.35;0.50;;;;;;;;;;5037691;28;20111;-28
2023/12/21 08:51:23;;;;;;;1.10;0.60;;;;;;;;;;5039832;28;20050;-29
2023/12/21 08:53:51;;;;;;;0.90;0.50;;;;;;;;;;5039848;28;20053;-29
2023/12/21 08:56:18;;;;;;;0.85;0.50;;;;;;;;;;5037999;28;20045;-30
2023/12/21 08:58:45;;;;;;;0.70;0.50;;;;;;;;;;5039602;28;20092;-31
2023/12/21 09:01:14;;;;;;;0.95;0.55;;;;;;;;;;5038578;28;20046;-27
2023/12/21 09:03:42;;;;;;;1.20;0.50;;;;;;;;;;5040633;28;20466;-31
2023/12/21 09:06:09;;;;;;;0.70;0.43;;;20.60;75.80;;;;;;5040204;28;20068;-29
2023/12/21 09:08:37;;;;;;;0.30;0.30;;;;;;;;;;5034561;28;20141;-27
2023/12/21 09:11:05;;;;;;;0.43;0.43;;;;;;;;;;5033809;28;20150;-27
2023/12/21 09:13:32;;;;;;;1.38;0.50;;;20.80;75.60;;;;;;5039773;28;20490;-31
2023/12/21 09:16:00;;;;;;;0.50;0.40;;;;;;;;;;5036099;28;20045;-27
2023/12/21 09:18:28;;;;;;;0.40;0.40;;;;;;;;;;5030276;28;20123;-27
2023/12/21 09:20:56;;;;;;;0.77;0.52;;;;;;;;;;5030125;28;20049;-28
2023/12/21 09:23:23;;;;;;;0.45;0.30;;;;;;;;;;5030204;28;20127;-27
2023/12/21 09:25:50;;;;;;;0.55;0.50;;;;;;;;;;5030386;28;20045;-30
2023/12/21 09:28:17;;;;;;;1.45;0.50;;;;;;;;;;5036174;28;20045;-28
2023/12/21 09:30:44;;;;;;;0.75;0.40;;;;;;;;;;5039855;28;20088;-27
2023/12/21 09:33:13;;;;;;;1.05;0.50;;;;;;;;;;5039264;28;20045;-28
2023/12/21 09:35:41;;;;;;;0.40;0.40;;;21.10;49.00;;;;;;5041669;28;20095;-30
2023/12/21 09:38:09;;;;;;;0.93;0.40;;;;;;;;;;5039272;28;20111;-28
2023/12/21 09:40:37;;;;;;;1.02;0.60;;;21.30;53.50;;;;;;5047046;28;20045;-27
2023/12/21 09:43:05;;;;;;;0.45;0.43;;;21.00;56.00;;;;;;5053442;28;20053;-27
2023/12/21 09:45:32;;;;;;;1.25;0.50;;;;;;;;;;5043003;28;20116;-28
2023/12/21 09:47:59;;;;;;;0.40;0.40;;;21.20;74.80;;;;;;5034491;28;20045;-31
2023/12/21 09:50:26;;;;;;;0.85;0.60;;;21.60;75.50;;;;;;5034055;28;20042;-28
2023/12/21 09:52:55;;;;;;;0.88;0.40;;;;;;;;;;5034261;28;20636;-32
2023/12/21 09:55:22;;;;;;;1.88;0.35;;;;;;;;;;5033953;28;20108;-27
2023/12/21 09:57:49;;;;;;;0.55;0.47;;;;;;;;;;5034287;28;20057;-32
2023/12/21 10:00:17;;;;;;;1.38;0.50;;;;;;;;;;5034361;28;20046;-31
2023/12/21 10:02:44;;;;;;;0.60;0.60;;;;;;;;;;5035193;28;20053;-32
2023/12/21 10:05:11;;;;;;;1.65;0.60;;;;;;;;;;5042130;28;20049;-31
2023/12/21 10:07:39;;;;;;;1.17;0.57;;;;;;;;;;5043163;28;20041;-27
2023/12/21 10:10:09;;;;;;;0.77;0.50;;;21.60;57.20;;;;;;5041657;28;20111;-26
2023/12/21 10:12:35;;;;;;;1.35;0.70;;;22.00;74.70;;;;;;5042001;28;20052;-26
2023/12/21 10:15:04;;;;;;;1.90;0.73;;;;;;;;;;5042016;28;20106;-28
2023/12/21 10:17:32;;;;;;;1.45;0.60;;;21.50;74.00;;;;;;5043603;28;20128;-25
2023/12/21 10:20:00;;;;;;;1.58;0.60;;;21.50;48.50;;;;;;5041137;28;20040;-26
2023/12/21 10:22:27;;;;;;;0.70;0.60;;;;;;;;;;5043967;28;20052;-26
2023/12/21 10:24:55;;;;;;;1.08;0.50;;;;;;;;;;5032592;28;20081;-27
2023/12/21 10:27:25;;;;;;;1.17;0.70;;;21.50;48.50;;;;;;5032838;28;20041;-26
2023/12/21 10:29:54;;;;;;;2.10;0.80;;;;;;;;;;5032985;28;20045;-26
2023/12/21 10:32:21;;;;;;;1.45;0.70;;;;;;;;;;5033004;28;20072;-26
2023/12/21 10:34:48;;;;;;;2.10;0.60;;;;;;;;;;5032708;28;20720;-26
2023/12/21 10:37:16;;;;;;;1.13;0.60;;;;;;;;;;5038954;28;20460;-27
2023/12/21 10:39:43;;;;;;;1.00;0.65;;;;;;;;;;5043224;28;20539;-26
2023/12/21 10:42:10;;;;;;;1.10;0.70;;;22.00;73.90;;;;;;5037976;28;20510;-25
2023/12/21 10:44:39;;;;;;;1.50;0.75;;;;;;;;;;5025472;28;20490;-25
2023/12/21 10:47:06;;;;;;;1.80;0.90;;;21.50;60.50;;;;;;5040722;28;20045;-25
2023/12/21 10:49:33;;;;;;;2.67;0.60;;;;;;;;;;5033138;28;20052;-25
2023/12/21 10:52:00;;;;;;;1.30;0.93;;;;;;;;;;5031931;28;20041;-30
2023/12/21 10:54:28;;;;;;;2.20;0.77;;;;;;;;;;5032436;28;20558;-26
2023/12/21 10:56:55;;;;;;;1.30;0.90;;;21.60;74.10;;;;;;5033263;28;20050;-26
2023/12/21 10:59:22;;;;;;;3.85;0.75;;;;;;;;;;5044347;28;20053;-28
2023/12/21 11:01:51;;;;;;;1.75;0.90;;;21.50;48.90;;;;;;5052932;28;20053;-26
2023/12/21 11:04:18;;;;;;;1.92;0.90;;;;;;;;;;5052411;28;20049;-28
2023/12/21 11:06:46;;;;;;;4.18;1.40;;;;;;;;;;5047739;28;20049;-26
2023/12/21 11:09:18;;;;;;;1.45;1.00;;;;;;;;;;5042297;28;20402;-31
2023/12/21 11:11:45;;;;;;;2.40;1.00;;;21.40;75.00;;;;;;5041000;28;20175;-32
2023/12/21 11:14:12;;;;;;;2.10;1.00;;;;;;;;;;5038274;28;20042;-30
2023/12/21 11:16:41;;;;;;;3.00;1.25;;;;;;;;;;5037233;28;20049;-32
2023/12/21 11:19:11;;;;;;;2.75;1.00;;;21.40;49.00;;;;;;5035414;28;20453;-28
2023/12/21 11:21:38;;;;;;;1.60;0.90;;;;;;;;;;5037973;28;20494;-26
2023/12/21 11:24:06;;;;;;;2.17;1.20;;;;;;;;;;5041006;28;20470;-31
2023/12/21 11:26:33;;;;;;;2.20;0.80;;;21.00;52.20;;;;;;5041570;28;20053;-32
2023/12/21 11:29:06;;;;;;;2.97;1.00;;;;;;;;;;5042668;28;20088;-35
2023/12/21 11:31:39;;;;;;;2.45;1.00;;;;;;;;;;5038896;28;20046;-30
2023/12/21 11:34:14;;;;;;;1.65;0.70;;;;;;;;;;5042787;28;20060;-25
2023/12/21 11:36:41;;;;;;;2.50;1.20;;;;;;;;;;5042601;28;20568;-28
2023/12/21 11:39:12;;;;;;;2.67;1.13;;;21.00;49.00;;;;;;5042033;28;20049;-25
2023/12/21 11:41:49;;;;;;;2.28;1.00;;;;;;;;;;5039130;28;20049;-26
2023/12/21 11:44:16;;;;;;;2.28;1.00;;;;;;;;;;5039509;28;20053;-26
2023/12/21 11:46:43;;;;;;;2.20;1.10;;;;;;;;;;5040318;28;20506;-26
2023/12/21 11:49:11;;;;;;;1.90;0.90;;;;;;;;;;5049787;28;20457;-26
2023/12/21 11:51:49;;;;;;;1.08;0.80;;;;;;;;;;5043355;28;20109;-26
2023/12/21 11:54:19;;;;;;;1.92;1.00;;;;;;;;;;5034437;28;20103;-26
2023/12/21 11:56:46;;;;;;;2.92;1.20;;;21.50;75.30;;;;;;5034059;28;20049;-25
2023/12/21 11:59:16;;;;;;;1.63;0.93;;;;;;;;;;5032801;28;20076;-26
2023/12/21 12:01:43;;;;;;;2.65;1.20;;;;;;;;;;5031172;28;20103;-25
2023/12/21 12:04:12;;;;;;;2.35;1.10;;;20.60;49.40;;;;;;5032612;28;20100;-26
2023/12/21 12:06:39;;;;;;;2.53;1.00;;;;;;;;;;5032641;28;20487;-26
2023/12/21 12:09:08;;;;;;;2.53;1.10;;;;;;;;;;5032215;28;20387;-27
2023/12/21 12:11:35;;;;;;;3.85;1.08;;;;;;;;;;5041086;28;20095;-26
2023/12/21 12:14:03;;;;;;;2.65;1.00;;;;;;;;;;5043717;28;20042;-26
2023/12/21 12:16:32;;;;;;;2.92;1.13;;;;;;;;;;5032507;28;20533;-26
2023/12/21 12:18:59;;;;;;;3.22;1.20;;;;;;;;;;5031932;28;20056;-26
2023/12/21 12:21:26;;;;;;;3.42;1.38;;;;;;;;;;5032209;28;20080;-26
2023/12/21 12:23:54;;;;;;;2.20;1.00;;;;;;;;;;5032051;28;20053;-25
2023/12/21 12:26:23;;;;;;;3.53;1.30;;;20.30;49.60;;;;;;5032004;28;20042;-26
2023/12/21 12:28:50;;;;;;;3.35;1.40;;;;;;;;;;5045728;28;20422;-26
2023/12/21 12:31:18;;;;;;;3.45;1.08;;;20.30;75.30;;;;;;5071586;28;20072;-25
2023/12/21 12:33:45;;;;;;;3.00;1.08;;;20.30;54.00;;;;;;5040317;28;20124;-26
2023/12/21 12:36:13;;;;;;;3.03;1.10;;;;;;;;;;5039282;28;20048;-30
2023/12/21 12:38:43;;;;;;;2.55;1.23;;;20.10;76.50;;;;;;5071879;28;20052;-26
2023/12/21 12:41:09;;;;;;;3.65;1.48;;;21.30;77.10;;;;;;5063684;28;20056;-26
2023/12/21 12:43:38;;;;;;;4.20;1.25;;;20.10;49.70;;;;;;5043719;28;20107;-26
2023/12/21 12:46:05;;;;;;;3.22;1.40;;;;;;;;;;5033302;28;20061;-28
2023/12/21 12:48:32;;;;;;;4.43;1.40;;;19.90;76.10;;;;;;5031791;28;20050;-26
2023/12/21 12:50:59;;;;;;;3.88;1.30;;;;;;;;;;5031784;28;20049;-27
2023/12/21 12:53:27;;;;;;;3.67;1.40;;;;;;;;;;5037764;28;20053;-27
2023/12/21 12:55:56;;;;;;;3.83;1.50;;;;;;;;;;5034476;28;20410;-26
2023/12/21 12:58:24;;;;;;;3.80;1.23;;;;;;;;;;5031833;28;20072;-26
2023/12/21 13:00:52;;;;;;;4.10;1.35;;;;;;;;;;5031680;28;20123;-26
2023/12/21 13:03:20;;;;;;;3.38;1.40;;;;;;;;;;5031319;28;20111;-28
2023/12/21 13:05:46;;;;;;;4.78;1.52;;;19.60;75.70;;;;;;5031643;28;20050;-27
2023/12/21 13:08:14;;;;;;;3.08;1.30;;;;;;;;;;5031385;28;20095;-28
2023/12/21 13:10:41;;;;;;;3.50;1.20;;;;;;;;;;5028906;28;20067;-26
2023/12/21 13:13:09;;;;;;;4.25;1.50;;;;;;;;;;5028518;28;20050;-26
2023/12/21 13:15:36;;;;;;;3.42;1.55;;;20.00;57.60;;;;;;5032401;28;20056;-25
2023/12/21 13:18:04;;;;;;;3.42;1.10;;;18.50;49.00;;;;;;5032322;28;20561;-32
2023/12/21 13:20:32;;;;;;;4.03;1.45;;;;;;;;;;5032837;28;20064;-32
2023/12/21 13:22:59;;;;;;;3.58;1.33;;;;;;;;;;5042020;28;20052;-32
2023/12/21 13:25:26;;;;;;;2.80;1.48;;;;;;;;;;5058151;28;20044;-28
2023/12/21 13:27:53;;;;;;;2.75;1.17;;;;;;;;;;5073746;28;20044;-25
2023/12/21 13:30:23;;;;;;;3.25;1.27;;;;;;;;;;5074680;28;20105;-29
2023/12/21 13:32:50;;;;;;;2.47;1.10;;;;;;;;;;5074721;28;20509;-28
2023/12/21 13:35:19;;;;;;;3.33;1.40;;;;;;;;;;5075249;28;20083;-25
2023/12/21 13:37:46;;;;;;;2.33;0.90;;;;;;;;;;5074762;28;20055;-25
2023/12/21 13:40:14;;;;;;;2.30;1.08;;;;;;;;;;5048828;28;20050;-25
2023/12/21 13:42:40;;;;;;;4.47;1.55;;;21.20;55.70;;;;;;5054961;28;20095;-26
2023/12/21 13:45:09;;;;;;;4.35;1.17;;;;;;;;;;5054562;28;20056;-25
2023/12/21 13:47:38;;;;;;;3.97;1.30;;;20.20;76.10;;;;;;5054096;28;20465;-25
2023/12/21 13:50:06;;;;;;;1.98;0.90;;;20.80;51.10;;;;;;5054745;28;20048;-28
2023/12/21 13:52:34;;;;;;;2.42;1.05;;;;;;;;;;5054843;28;20049;-28
2023/12/21 13:55:01;;;;;;;3.15;1.25;;;21.20;76.40;;;;;;5054517;28;20088;-25
2023/12/21 13:57:28;;;;;;;1.88;0.90;;;;;;;;;;5048878;28;20060;-27
2023/12/21 13:59:56;;;;;;;2.75;1.05;;;;;;;;;;5049978;28;20053;-26
2023/12/21 14:02:23;;;;;;;1.75;0.98;;;;;;;;;;5043628;28;20069;-25
2023/12/21 14:04:50;;;;;;;2.10;1.05;;;20.00;52.30;;;;;;5040963;28;20053;-25